createdAt,value
2023-03-25T00:00:49.331Z,4.38
2023-03-25T00:02:53.094Z,4.20
2023-03-25T00:04:56.134Z,4.72
2023-03-25T00:06:58.619Z,3.38
2023-03-25T00:09:02.614Z,3.55
2023-03-25T00:11:07.067Z,3.90
2023-03-25T00:13:09.564Z,3.75
2023-03-25T00:15:13.900Z,3.05
2023-03-25T00:17:18.017Z,3.83
2023-03-25T00:19:24.062Z,3.92
2023-03-25T00:21:26.542Z,2.85
2023-03-25T00:23:30.018Z,2.83
2023-03-25T00:25:34.399Z,3.33
2023-03-25T00:27:37.164Z,3.08
2023-03-25T00:29:39.597Z,3.10
2023-03-25T00:31:43.196Z,3.90
2023-03-25T00:33:46.002Z,3.78
2023-03-25T00:35:53.022Z,3.60
2023-03-25T00:38:03.509Z,3.30
2023-03-25T00:40:06.593Z,4.05
2023-03-25T00:42:11.615Z,2.95
2023-03-25T00:44:14.835Z,3.47
2023-03-25T00:46:17.481Z,2.88
2023-03-25T00:48:20.038Z,3.30
2023-03-25T00:50:23.155Z,3.20
2023-03-25T00:52:26.335Z,3.08
2023-03-25T00:54:28.876Z,2.95
2023-03-25T00:56:32.210Z,2.70
2023-03-25T00:58:34.608Z,2.03
2023-03-25T01:00:37.550Z,2.88
2023-03-25T01:02:40.153Z,2.78
2023-03-25T01:04:45.786Z,3.17
2023-03-25T01:06:52.290Z,2.60
2023-03-25T01:08:58.879Z,2.65
2023-03-25T01:11:01.735Z,2.53
2023-03-25T01:13:04.617Z,2.92
2023-03-25T01:15:07.952Z,2.90
2023-03-25T01:17:11.002Z,2.50
2023-03-25T01:19:14.642Z,3.42
2023-03-25T01:21:17.532Z,2.83
2023-03-25T01:23:20.050Z,2.40
2023-03-25T01:25:22.815Z,2.45
2023-03-25T01:27:25.964Z,2.40
2023-03-25T01:29:28.654Z,2.00
2023-03-25T01:31:33.394Z,2.97
2023-03-25T01:33:36.558Z,3.30
2023-03-25T01:35:38.988Z,2.25
2023-03-25T01:37:44.515Z,2.35
2023-03-25T01:39:46.790Z,1.73
2023-03-25T01:41:51.422Z,1.90
2023-03-25T01:44:29.410Z,1.83
2023-03-25T01:46:31.838Z,2.50
2023-03-25T01:48:38.327Z,2.78
2023-03-25T01:50:45.865Z,2.47
2023-03-25T01:52:51.888Z,2.97
2023-03-25T01:54:56.913Z,2.83
2023-03-25T01:56:59.641Z,2.78
2023-03-25T01:59:05.205Z,2.58
2023-03-25T02:01:13.826Z,2.97
2023-03-25T02:03:21.633Z,2.90
2023-03-25T02:05:40.023Z,2.20
2023-03-25T02:07:47.212Z,2.10
2023-03-25T02:09:50.035Z,1.75
2023-03-25T02:11:55.215Z,2.00
2023-03-25T02:14:03.291Z,2.03
2023-03-25T02:16:32.924Z,2.70
2023-03-25T02:18:48.952Z,3.05
2023-03-25T02:21:23.611Z,3.33
2023-03-25T02:23:58.576Z,2.72
2023-03-25T02:26:27.360Z,3.03
2023-03-25T02:29:02.464Z,3.80
2023-03-25T02:31:29.330Z,4.20
2023-03-25T02:34:19.000Z,3.38
2023-03-25T02:36:33.612Z,5.13
2023-03-25T02:38:53.061Z,6.68
2023-03-25T02:41:03.642Z,4.32
2023-03-25T02:43:32.696Z,3.65
2023-03-25T02:45:41.755Z,4.47
2023-03-25T02:47:56.538Z,3.38
2023-03-25T02:50:07.779Z,3.22
2023-03-25T02:52:16.735Z,3.25
2023-03-25T02:54:21.576Z,4.20
2023-03-25T02:56:26.730Z,7.70
2023-03-25T02:58:31.387Z,4.93
2023-03-25T03:00:34.829Z,3.70
2023-03-25T03:02:38.104Z,3.42
2023-03-25T03:04:49.579Z,3.67
2023-03-25T03:06:55.212Z,3.92
2023-03-25T03:09:11.817Z,4.00
2023-03-25T03:11:22.300Z,3.13
2023-03-25T03:13:24.590Z,4.05
2023-03-25T03:15:46.502Z,3.45
2023-03-25T03:18:07.320Z,4.47
2023-03-25T03:20:22.178Z,3.65
2023-03-25T03:22:36.946Z,3.25
2023-03-25T03:24:47.572Z,3.47
2023-03-25T03:27:24.765Z,3.78
2023-03-25T03:29:32.864Z,8.15
2023-03-25T03:32:06.511Z,5.88
2023-03-25T03:34:27.914Z,5.38
2023-03-25T03:36:36.768Z,7.20
2023-03-25T03:38:45.572Z,7.03
2023-03-25T03:40:54.860Z,5.18
2023-03-25T03:43:03.231Z,5.25
2023-03-25T03:45:18.180Z,4.95
2023-03-25T03:47:30.217Z,4.50
2023-03-25T03:49:55.533Z,4.75
2023-03-25T03:52:14.093Z,6.25
2023-03-25T03:54:25.668Z,5.68
2023-03-25T03:57:05.620Z,5.47
2023-03-25T03:59:15.061Z,5.93
2023-03-25T04:01:31.068Z,5.68
2023-03-25T04:03:55.056Z,6.13
2023-03-25T04:06:09.985Z,5.32
2023-03-25T04:08:44.443Z,4.43
2023-03-25T04:10:59.477Z,5.05
2023-03-25T04:13:06.159Z,4.20
2023-03-25T04:15:09.000Z,3.85
2023-03-25T04:17:11.459Z,3.15
2023-03-25T04:19:19.972Z,4.05
2023-03-25T04:21:22.506Z,4.53
2023-03-25T04:23:24.844Z,3.55
2023-03-25T04:25:28.015Z,4.43
2023-03-25T04:27:30.779Z,3.42
2023-03-25T04:29:34.051Z,3.92
2023-03-25T04:31:38.009Z,3.90
2023-03-25T04:33:40.484Z,4.47
2023-03-25T04:35:42.838Z,4.88
2023-03-25T04:37:46.730Z,5.50
2023-03-25T04:39:50.035Z,6.75
2023-03-25T04:41:54.434Z,5.22
2023-03-25T04:43:56.800Z,7.43
2023-03-25T04:46:00.841Z,6.95
2023-03-25T04:48:06.360Z,7.43
2023-03-25T04:50:22.441Z,5.72
2023-03-25T04:52:24.950Z,6.60
2023-03-25T04:54:27.575Z,6.28
2023-03-25T04:56:30.315Z,5.60
2023-03-25T04:58:33.207Z,6.07
2023-03-25T05:00:35.646Z,6.88
2023-03-25T05:02:38.958Z,5.80
2023-03-25T05:04:42.748Z,5.82
2023-03-25T05:06:49.829Z,5.88
2023-03-25T05:10:55.719Z,5.13
2023-03-25T05:13:04.337Z,5.45
2023-03-25T05:15:08.220Z,4.70
2023-03-25T05:17:10.458Z,4.22
2023-03-25T05:19:13.871Z,6.18
2023-03-25T05:21:17.239Z,4.13
2023-03-25T05:23:20.230Z,4.75
2023-03-25T05:25:23.436Z,4.55
2023-03-25T05:27:26.279Z,4.10
2023-03-25T05:29:34.312Z,5.15
2023-03-25T05:31:37.080Z,4.57
2023-03-25T05:33:46.163Z,3.92
2023-03-25T05:35:48.763Z,3.65
2023-03-25T05:37:51.754Z,4.72
2023-03-25T05:39:54.514Z,4.10
2023-03-25T05:42:03.049Z,4.80
2023-03-25T05:44:15.095Z,7.18
2023-03-25T05:46:19.567Z,6.07
2023-03-25T05:48:22.739Z,6.63
2023-03-25T05:50:26.254Z,7.18
2023-03-25T05:52:28.517Z,5.85
2023-03-25T05:54:31.122Z,8.05
2023-03-25T05:56:33.546Z,6.80
2023-03-25T05:58:36.803Z,7.13
2023-03-25T06:00:39.538Z,6.93
2023-03-25T06:02:43.663Z,5.80
2023-03-25T06:04:50.793Z,6.35
2023-03-25T06:06:53.773Z,4.80
2023-03-25T06:08:56.959Z,6.00
2023-03-25T06:10:59.577Z,5.00
2023-03-25T06:13:02.145Z,4.55
2023-03-25T06:15:07.954Z,6.25
2023-03-25T06:17:11.161Z,5.70
2023-03-25T06:19:13.496Z,6.53
2023-03-25T06:21:15.896Z,6.95
2023-03-25T06:23:20.230Z,7.65
2023-03-25T06:25:23.815Z,5.93
2023-03-25T06:27:28.463Z,7.10
2023-03-25T06:29:31.034Z,7.70
2023-03-25T06:31:34.352Z,7.50
2023-03-25T06:33:42.309Z,7.60
2023-03-25T06:35:54.248Z,8.10
2023-03-25T06:37:57.207Z,7.78
2023-03-25T06:40:15.764Z,7.45
2023-03-25T06:42:18.651Z,8.25
2023-03-25T06:44:41.131Z,8.63
2023-03-25T06:47:04.881Z,8.57
2023-03-25T06:49:18.427Z,7.70
2023-03-25T06:51:22.928Z,8.13
2023-03-25T06:53:25.464Z,8.90
2023-03-25T06:55:27.888Z,8.07
2023-03-25T06:57:30.415Z,7.82
2023-03-25T06:59:32.913Z,8.07
2023-03-25T07:01:35.453Z,7.50
2023-03-25T07:03:38.973Z,8.15
2023-03-25T07:05:43.943Z,7.63
2023-03-25T07:07:46.452Z,6.75
2023-03-25T07:09:56.151Z,7.75
2023-03-25T07:11:58.848Z,6.70
2023-03-25T07:14:01.537Z,7.28
2023-03-25T07:16:04.377Z,7.47
2023-03-25T07:18:07.515Z,6.70
2023-03-25T07:20:12.138Z,5.57
2023-03-25T07:22:16.893Z,4.95
2023-03-25T07:24:19.285Z,6.38
2023-03-25T07:26:21.906Z,6.15
2023-03-25T07:28:24.299Z,4.70
2023-03-25T07:30:26.892Z,4.95
2023-03-25T07:32:29.640Z,5.68
2023-03-25T07:34:33.011Z,6.10
2023-03-25T07:36:35.630Z,5.28
2023-03-25T07:38:38.462Z,5.18
2023-03-25T07:40:41.237Z,6.00
2023-03-25T07:42:45.040Z,3.75
2023-03-25T07:44:59.573Z,4.03
2023-03-25T07:47:03.744Z,3.42
2023-03-25T07:49:06.377Z,3.65
2023-03-25T07:51:10.645Z,4.32
2023-03-25T07:53:13.160Z,2.90
2023-03-25T07:55:17.400Z,3.50
2023-03-25T07:57:20.182Z,2.97
2023-03-25T07:59:22.428Z,2.85
2023-03-25T08:01:24.943Z,2.90
2023-03-25T08:03:28.783Z,2.83
2023-03-25T08:05:32.019Z,2.95
2023-03-25T08:07:34.615Z,3.17
2023-03-25T08:09:37.376Z,2.85
2023-03-25T08:11:39.895Z,2.80
2023-03-25T08:13:42.614Z,3.08
2023-03-25T08:15:46.538Z,1.92
2023-03-25T08:17:48.916Z,2.60
2023-03-25T08:19:51.512Z,2.30
2023-03-25T08:21:54.226Z,2.33
2023-03-25T08:24:05.119Z,2.50
2023-03-25T08:26:07.846Z,2.55
2023-03-25T08:28:10.617Z,3.10
2023-03-25T08:30:13.670Z,3.17
2023-03-25T08:32:15.999Z,3.08
2023-03-25T08:34:21.256Z,3.47
2023-03-25T08:36:23.834Z,2.67
2023-03-25T08:38:34.640Z,3.20
2023-03-25T08:40:37.523Z,3.20
2023-03-25T08:42:39.918Z,2.60
2023-03-25T08:44:42.565Z,2.22
2023-03-25T08:46:46.278Z,2.53
2023-03-25T08:48:50.230Z,2.88
2023-03-25T08:50:53.960Z,3.03
2023-03-25T08:52:59.264Z,2.70
2023-03-25T08:55:01.821Z,2.35
2023-03-25T08:57:04.892Z,3.03
2023-03-25T08:59:07.666Z,2.45
2023-03-25T09:01:10.671Z,2.72
2023-03-25T09:03:13.464Z,2.90
2023-03-25T09:05:16.682Z,3.10
2023-03-25T09:07:20.192Z,2.38
2023-03-25T09:09:23.093Z,2.80
2023-03-25T09:11:34.387Z,2.78
2023-03-25T09:13:39.578Z,2.20
2023-03-25T09:15:42.196Z,2.00
2023-03-25T09:17:44.973Z,2.10
2023-03-25T09:19:48.292Z,1.88
2023-03-25T09:21:50.661Z,2.53
2023-03-25T09:23:53.430Z,1.85
2023-03-25T09:25:59.891Z,1.90
2023-03-25T09:28:03.043Z,1.80
2023-03-25T09:30:06.997Z,1.60
2023-03-25T09:32:09.806Z,2.60
2023-03-25T09:34:12.785Z,2.30
2023-03-25T09:36:16.384Z,2.38
2023-03-25T09:38:18.881Z,2.15
2023-03-25T09:40:22.591Z,1.90
2023-03-25T09:42:38.243Z,2.05
2023-03-25T09:44:57.380Z,2.45
2023-03-25T09:47:03.080Z,2.28
2023-03-25T09:49:11.669Z,2.20
2023-03-25T09:51:48.553Z,2.30
2023-03-25T09:53:59.181Z,3.63
2023-03-25T09:56:03.378Z,3.67
2023-03-25T09:58:36.717Z,2.10
2023-03-25T10:00:39.891Z,2.45
2023-03-25T10:02:52.990Z,2.20
2023-03-25T10:05:12.275Z,2.08
2023-03-25T10:07:54.239Z,1.95
2023-03-25T10:10:29.940Z,2.50
2023-03-25T10:12:42.092Z,1.90
2023-03-25T10:15:03.309Z,2.00
2023-03-25T10:17:22.826Z,1.98
2023-03-25T10:19:51.741Z,2.22
2023-03-25T10:22:07.856Z,1.90
2023-03-25T10:24:23.981Z,1.65
2023-03-25T10:26:49.621Z,1.63
2023-03-25T10:29:11.024Z,1.48
2023-03-25T10:31:18.055Z,2.00
2023-03-25T10:33:40.006Z,2.40
2023-03-25T10:35:48.763Z,3.00
2023-03-25T10:37:54.851Z,2.42
2023-03-25T10:40:22.593Z,1.92
2023-03-25T10:42:36.255Z,2.10
2023-03-25T10:44:38.930Z,1.65
2023-03-25T10:47:06.224Z,1.90
2023-03-25T10:49:11.967Z,1.90
2023-03-25T10:51:19.118Z,1.60
2023-03-25T10:53:25.939Z,2.47
2023-03-25T10:55:33.068Z,1.80
2023-03-25T10:57:35.787Z,1.80
2023-03-25T10:59:45.724Z,2.55
2023-03-25T11:01:49.504Z,2.30
2023-03-25T11:03:54.025Z,1.75
2023-03-25T11:05:57.978Z,2.22
2023-03-25T11:08:09.000Z,2.03
2023-03-25T11:10:25.232Z,2.20
2023-03-25T11:14:45.214Z,1.75
2023-03-25T11:16:53.181Z,1.63
2023-03-25T11:18:55.804Z,1.80
2023-03-25T11:21:04.788Z,1.90
2023-03-25T11:23:28.321Z,1.50
2023-03-25T11:25:37.163Z,1.67
2023-03-25T11:27:50.080Z,1.50
2023-03-25T11:30:03.557Z,1.60
2023-03-25T11:32:15.232Z,1.40
2023-03-25T11:34:23.983Z,1.65
2023-03-25T11:36:31.885Z,1.42
2023-03-25T11:38:39.598Z,1.27
2023-03-25T11:40:55.521Z,1.23
2023-03-25T11:43:00.726Z,1.00
2023-03-25T11:45:04.085Z,1.80
2023-03-25T11:47:10.993Z,1.30
2023-03-25T11:49:21.923Z,1.10
2023-03-25T11:51:28.444Z,1.30
2023-03-25T11:53:33.661Z,1.08
2023-03-25T11:55:46.253Z,1.40
2023-03-25T12:00:07.578Z,1.50
2023-03-25T12:02:24.710Z,1.30
2023-03-25T12:04:27.093Z,4.20
2023-03-25T12:06:30.662Z,1.35
2023-03-25T12:08:48.743Z,1.02
2023-03-25T12:11:22.016Z,0.80
2023-03-25T12:13:39.969Z,1.13
2023-03-25T12:16:08.213Z,0.90
2023-03-25T12:18:31.451Z,1.00
2023-03-25T12:20:57.331Z,1.27
2023-03-25T12:23:03.999Z,4.20
2023-03-25T12:27:28.449Z,21.23
2023-03-25T12:29:56.095Z,9.88
2023-03-25T12:32:17.776Z,3.67
2023-03-25T12:34:32.117Z,2.33
2023-03-25T12:36:53.741Z,2.28
2023-03-25T12:39:41.632Z,8.15
2023-03-25T12:41:57.869Z,16.17
2023-03-25T12:44:08.297Z,21.38
2023-03-25T12:46:30.024Z,9.98
2023-03-25T12:48:32.775Z,80.82
2023-03-25T12:50:53.857Z,36.78
2023-03-25T12:52:59.288Z,2.00
2023-03-25T12:55:32.339Z,1.67
2023-03-25T12:57:43.747Z,1.45
2023-03-25T12:59:55.265Z,1.23
2023-03-25T13:02:10.247Z,1.10
2023-03-25T13:04:15.243Z,2.88
2023-03-25T13:06:39.884Z,1.58
2023-03-25T13:08:58.163Z,1.60
2023-03-25T13:11:12.034Z,1.13
2023-03-25T13:13:25.116Z,22.60
2023-03-25T13:15:48.567Z,2.67
2023-03-25T13:18:07.487Z,5.93
2023-03-25T13:20:11.458Z,5.15
2023-03-25T13:22:29.526Z,12.55
2023-03-25T13:24:49.926Z,16.48
2023-03-25T13:26:54.303Z,3.55
2023-03-25T13:29:12.496Z,2.42
2023-03-25T13:31:21.200Z,3.88
2023-03-25T13:33:31.523Z,4.88
2023-03-25T13:35:50.627Z,10.43
2023-03-25T13:37:58.452Z,1.95
2023-03-25T13:40:34.020Z,9.90
2023-03-25T13:43:04.127Z,2.63
2023-03-25T13:45:11.475Z,5.15
2023-03-25T13:47:43.824Z,5.88
2023-03-25T13:50:00.893Z,8.85
2023-03-25T13:52:03.993Z,4.18
2023-03-25T13:54:31.587Z,2.92
2023-03-25T13:56:45.955Z,7.35
2023-03-25T13:59:19.566Z,1.08
2023-03-25T14:01:28.923Z,1.33
2023-03-25T14:03:56.105Z,1.17
2023-03-25T14:06:11.322Z,1.10
2023-03-25T14:08:26.375Z,0.95
2023-03-25T14:10:40.205Z,1.27
2023-03-25T14:13:00.374Z,0.88
2023-03-25T14:15:14.394Z,0.90
2023-03-25T14:17:19.378Z,1.20
2023-03-25T14:19:42.066Z,2.10
2023-03-25T14:21:52.144Z,1.83
2023-03-25T14:24:08.815Z,1.63
2023-03-25T14:26:12.302Z,3.85
2023-03-25T14:28:35.994Z,1.70
2023-03-25T14:30:40.258Z,5.28
2023-03-25T14:32:45.256Z,3.60
2023-03-25T14:34:52.727Z,22.17
2023-03-25T14:36:56.144Z,28.02
2023-03-25T14:38:59.832Z,3.40
2023-03-25T14:41:03.854Z,2.08
2023-03-25T14:43:38.660Z,3.42
2023-03-25T14:46:04.095Z,3.22
2023-03-25T14:48:23.079Z,4.45
2023-03-25T14:50:30.383Z,1.70
2023-03-25T14:52:41.379Z,1.50
2023-03-25T14:54:44.550Z,3.10
2023-03-25T14:56:59.734Z,2.03
2023-03-25T14:59:13.651Z,1.00
2023-03-25T15:01:20.839Z,1.08
2023-03-25T15:03:37.657Z,1.20
2023-03-25T15:05:42.799Z,1.30
2023-03-25T15:07:54.549Z,1.40
2023-03-25T15:09:57.494Z,1.40
2023-03-25T15:12:04.373Z,33.65
2023-03-25T15:14:13.893Z,1.95
2023-03-25T15:16:55.319Z,11.93
2023-03-25T15:19:01.721Z,2.47
2023-03-25T15:21:05.229Z,4.60
2023-03-25T15:23:20.171Z,5.85
2023-03-25T15:25:23.420Z,2.92
2023-03-25T15:27:33.946Z,3.58
2023-03-25T15:30:14.713Z,6.53
2023-03-25T15:32:39.355Z,1.88
2023-03-25T15:37:46.602Z,1.88
2023-03-25T15:40:27.096Z,2.90
2023-03-25T15:42:39.785Z,1.90
2023-03-25T15:45:20.078Z,1.67
2023-03-25T15:47:25.444Z,1.50
2023-03-25T15:49:48.892Z,1.10
2023-03-25T15:52:17.150Z,1.35
2023-03-25T15:54:42.239Z,1.38
2023-03-25T15:56:47.432Z,2.10
2023-03-25T16:01:21.958Z,1.55
2023-03-25T16:03:29.659Z,1.70
2023-03-25T16:05:39.819Z,1.40
2023-03-25T16:07:43.567Z,1.92
2023-03-25T16:09:50.348Z,2.20
2023-03-25T16:11:58.326Z,2.25
2023-03-25T16:14:16.118Z,1.75
2023-03-25T16:16:20.045Z,1.70
2023-03-25T16:18:24.417Z,2.00
2023-03-25T16:20:32.107Z,2.13
2023-03-25T16:22:37.911Z,2.25
2023-03-25T16:24:41.203Z,1.90
2023-03-25T16:26:46.859Z,3.22
2023-03-25T16:28:49.550Z,3.92
2023-03-25T16:30:54.453Z,1.63
2023-03-25T16:33:11.126Z,1.95
2023-03-25T16:35:27.254Z,1.52
2023-03-25T16:37:33.461Z,1.95
2023-03-25T16:39:37.865Z,1.23
2023-03-25T16:41:47.235Z,1.20
2023-03-25T16:43:50.168Z,1.48
2023-03-25T16:45:56.617Z,1.67
2023-03-25T16:48:07.497Z,1.45
2023-03-25T16:50:18.228Z,1.77
2023-03-25T16:52:26.838Z,1.85
2023-03-25T16:54:43.719Z,2.20
2023-03-25T16:56:48.500Z,1.98
2023-03-25T16:59:05.613Z,3.28
2023-03-25T17:01:14.552Z,2.85
2023-03-25T17:03:37.751Z,2.70
2023-03-25T17:06:15.049Z,2.72
2023-03-25T17:08:21.600Z,2.40
2023-03-25T17:10:29.662Z,2.40
2023-03-25T17:12:32.325Z,1.80
2023-03-25T17:14:39.392Z,1.92
2023-03-25T17:16:43.290Z,1.92
2023-03-25T17:18:54.881Z,2.40
2023-03-25T17:21:03.147Z,3.95
2023-03-25T17:23:22.519Z,3.35
2023-03-25T17:25:32.723Z,3.00
2023-03-25T17:27:39.221Z,3.40
2023-03-25T17:30:00.414Z,2.63
2023-03-25T17:32:02.814Z,2.95
2023-03-25T17:34:12.465Z,3.22
2023-03-25T17:36:18.786Z,5.13
2023-03-25T17:38:48.031Z,5.15
2023-03-25T17:41:02.672Z,4.35
2023-03-25T17:43:11.856Z,4.88
2023-03-25T17:45:18.161Z,6.10
2023-03-25T17:47:22.448Z,5.57
2023-03-25T17:49:25.662Z,4.82
2023-03-25T17:51:31.132Z,4.95
2023-03-25T17:53:34.106Z,5.40
2023-03-25T17:55:37.699Z,6.07
2023-03-25T17:57:41.941Z,6.85
2023-03-25T17:59:46.065Z,3.97
2023-03-25T18:01:50.770Z,3.97
2023-03-25T18:03:55.139Z,5.53
2023-03-25T18:05:58.970Z,5.53
2023-03-25T18:08:02.665Z,33.47
2023-03-25T18:10:17.251Z,22.80
2023-03-25T18:12:19.947Z,18.30
2023-03-25T18:14:24.139Z,10.77
2023-03-25T18:16:26.761Z,8.68
2023-03-25T18:18:29.395Z,15.65
2023-03-25T18:20:36.265Z,15.25
2023-03-25T18:24:42.278Z,11.70
2023-03-25T18:26:45.709Z,10.70
2023-03-25T18:28:48.909Z,10.50
2023-03-25T18:30:55.792Z,9.15
2023-03-25T18:32:58.824Z,9.40
2023-03-25T18:35:01.595Z,5.63
2023-03-25T18:37:04.402Z,9.15
2023-03-25T18:39:12.138Z,12.10
2023-03-25T18:41:16.025Z,11.55
2023-03-25T18:43:19.341Z,10.77
2023-03-25T18:45:24.775Z,11.15
2023-03-25T18:47:27.603Z,8.40
2023-03-25T18:49:30.483Z,10.07
2023-03-25T18:51:33.274Z,8.60
2023-03-25T18:53:36.277Z,16.23
2023-03-25T18:55:39.443Z,21.10
2023-03-25T18:57:42.820Z,18.45
2023-03-25T18:59:45.926Z,17.10
2023-03-25T19:01:48.693Z,16.15
2023-03-25T19:03:51.981Z,16.20
2023-03-25T19:05:54.701Z,13.48
2023-03-25T19:07:58.028Z,12.93
2023-03-25T19:10:01.402Z,11.18
2023-03-25T19:12:04.100Z,11.80
2023-03-25T19:14:06.616Z,14.68
2023-03-25T19:16:10.134Z,14.20
2023-03-25T19:18:18.498Z,17.70
2023-03-25T19:20:25.535Z,19.58
2023-03-25T19:24:32.566Z,23.40
2023-03-25T19:26:35.711Z,22.02
2023-03-25T19:28:38.600Z,24.92
2023-03-25T19:30:44.200Z,26.58
2023-03-25T19:32:48.958Z,24.77
2023-03-25T19:34:56.769Z,25.42
2023-03-25T19:37:02.978Z,22.17
2023-03-25T19:39:06.031Z,12.65
2023-03-25T19:41:12.372Z,9.98
2023-03-25T19:43:15.382Z,7.97
2023-03-25T19:45:19.084Z,6.57
2023-03-25T19:47:21.884Z,5.25
2023-03-25T19:49:38.696Z,5.50
2023-03-25T19:51:45.530Z,4.95
2023-03-25T19:53:48.414Z,4.15
2023-03-25T19:55:52.189Z,2.97
2023-03-25T19:57:55.280Z,3.17
2023-03-25T19:59:58.302Z,1.95
2023-03-25T20:02:01.499Z,1.73
2023-03-25T20:04:05.206Z,1.60
2023-03-25T20:06:09.322Z,1.42
2023-03-25T20:08:12.403Z,1.25
2023-03-25T20:10:19.907Z,0.90
2023-03-25T20:12:23.334Z,1.27
2023-03-25T20:14:26.506Z,1.30
2023-03-25T20:16:31.205Z,1.35
2023-03-25T20:18:34.360Z,1.52
2023-03-25T20:20:37.081Z,1.38
2023-03-25T20:22:41.189Z,1.08
2023-03-25T20:24:44.745Z,1.10
2023-03-25T20:26:47.662Z,0.90
2023-03-25T20:28:50.800Z,1.45
2023-03-25T20:30:53.492Z,0.98
2023-03-25T20:32:56.199Z,1.23
2023-03-25T20:34:59.590Z,1.42
2023-03-25T20:37:02.358Z,1.10
2023-03-25T20:39:08.559Z,1.55
2023-03-25T20:41:11.584Z,1.23
2023-03-25T20:43:14.771Z,1.17
2023-03-25T20:45:19.057Z,1.13
2023-03-25T20:47:21.950Z,1.30
2023-03-25T20:49:24.542Z,1.10
2023-03-25T20:51:27.176Z,1.50
2023-03-25T20:53:30.779Z,1.50
2023-03-25T20:55:33.369Z,1.70
2023-03-25T20:57:36.528Z,1.60
2023-03-25T20:59:39.684Z,2.40
2023-03-25T21:01:42.428Z,2.25
2023-03-25T21:03:44.983Z,2.67
2023-03-25T21:05:49.847Z,2.17
2023-03-25T21:07:52.397Z,2.13
2023-03-25T21:09:55.455Z,1.95
2023-03-25T21:11:57.889Z,2.35
2023-03-25T21:14:00.720Z,2.20
2023-03-25T21:16:04.305Z,2.28
2023-03-25T21:18:07.117Z,2.03
2023-03-25T21:20:10.354Z,2.08
2023-03-25T21:22:13.299Z,2.20
2023-03-25T21:24:21.887Z,2.40
2023-03-25T21:26:24.844Z,2.42
2023-03-25T21:28:31.599Z,2.35
2023-03-25T21:30:34.516Z,2.88
2023-03-25T21:32:38.083Z,2.35
2023-03-25T21:34:41.237Z,2.33
2023-03-25T21:36:44.019Z,2.25
2023-03-25T21:38:46.670Z,2.03
2023-03-25T21:40:54.717Z,3.03
2023-03-25T21:42:57.459Z,2.10
2023-03-25T21:45:00.428Z,2.45
2023-03-25T21:47:06.832Z,2.08
2023-03-25T21:49:12.152Z,2.45
2023-03-25T21:51:15.218Z,2.60
2023-03-25T21:53:19.694Z,2.60
2023-03-25T21:55:22.824Z,2.47
2023-03-25T21:57:38.325Z,2.28
2023-03-25T21:59:41.084Z,2.42
2023-03-25T22:01:46.519Z,2.70
2023-03-25T22:03:54.375Z,2.60
2023-03-25T22:06:02.075Z,2.90
2023-03-25T22:08:07.283Z,3.15
2023-03-25T22:10:11.589Z,2.75
2023-03-25T22:12:14.397Z,2.95
2023-03-25T22:14:16.907Z,2.78
2023-03-25T22:16:21.095Z,2.65
2023-03-25T22:18:23.963Z,2.33
2023-03-25T22:20:26.635Z,2.55
2023-03-25T22:22:30.407Z,3.20
2023-03-25T22:24:32.753Z,3.20
2023-03-25T22:26:39.543Z,2.85
2023-03-25T22:28:43.022Z,2.55
2023-03-25T22:30:45.824Z,2.63
2023-03-25T22:32:48.313Z,3.47
2023-03-25T22:34:51.011Z,2.13
2023-03-25T22:36:53.887Z,2.47
2023-03-25T22:38:56.876Z,2.92
2023-03-25T22:41:04.563Z,3.10
2023-03-25T22:43:07.354Z,2.72
2023-03-25T22:45:10.438Z,3.03
2023-03-25T22:47:13.049Z,2.70
2023-03-25T22:49:16.361Z,2.65
2023-03-25T22:51:20.774Z,2.90
2023-03-25T22:53:26.819Z,3.90
2023-03-25T22:55:29.629Z,5.53
2023-03-25T22:57:32.773Z,5.35
2023-03-25T22:59:35.110Z,4.63
2023-03-25T23:01:38.511Z,4.60
2023-03-25T23:03:41.633Z,4.72
2023-03-25T23:05:58.261Z,3.55
2023-03-25T23:08:00.711Z,3.65
2023-03-25T23:10:05.421Z,4.88
2023-03-25T23:12:17.678Z,4.97
2023-03-25T23:14:20.058Z,4.43
2023-03-25T23:16:27.985Z,4.93
2023-03-25T23:18:31.635Z,5.53
2023-03-25T23:20:35.599Z,4.90
2023-03-25T23:22:37.826Z,4.85
2023-03-25T23:24:41.122Z,4.43
2023-03-25T23:26:45.708Z,5.50
2023-03-25T23:28:50.184Z,5.97
2023-03-25T23:30:53.916Z,4.70
2023-03-25T23:32:56.695Z,4.28
2023-03-25T23:35:00.287Z,4.30
2023-03-25T23:37:03.846Z,3.90
2023-03-25T23:39:11.767Z,4.05
2023-03-25T23:41:16.546Z,4.05
2023-03-25T23:43:19.142Z,4.05
2023-03-25T23:45:21.742Z,4.15
2023-03-25T23:47:24.770Z,3.78
2023-03-25T23:49:33.741Z,3.95
2023-03-25T23:51:39.564Z,4.57
2023-03-25T23:53:44.205Z,3.58
2023-03-25T23:55:47.916Z,3.58
2023-03-25T23:57:50.683Z,3.97
2023-03-25T23:59:52.868Z,4.45
